sensor_id;sensor_type;location;lat;lon;timestamp;pressure;altitude;pressure_sealevel;temperature;humidity
19526;BME280;9907;42.676;26.348;2023-02-12T00:01:38;99881.91;;;-0.31;53.01
19526;BME280;9907;42.676;26.348;2023-02-12T00:04:04;99887.13;;;-0.30;53.16
19526;BME280;9907;42.676;26.348;2023-02-12T00:06:29;99890.75;;;-0.34;53.68
19526;BME280;9907;42.676;26.348;2023-02-12T00:08:56;99885.84;;;-0.44;54.22
19526;BME280;9907;42.676;26.348;2023-02-12T00:11:24;99885.97;;;-0.49;54.10
19526;BME280;9907;42.676;26.348;2023-02-12T00:13:50;99883.59;;;-0.57;54.68
19526;BME280;9907;42.676;26.348;2023-02-12T00:16:18;99882.84;;;-0.60;54.04
19526;BME280;9907;42.676;26.348;2023-02-12T00:18:44;99878.28;;;-0.55;54.58
19526;BME280;9907;42.676;26.348;2023-02-12T00:21:11;99874.03;;;-0.59;54.44
19526;BME280;9907;42.676;26.348;2023-02-12T00:23:38;99878.44;;;-0.60;54.87
19526;BME280;9907;42.676;26.348;2023-02-12T00:26:08;99878.22;;;-0.52;54.93
19526;BME280;9907;42.676;26.348;2023-02-12T00:28:36;99874.16;;;-0.36;54.69
19526;BME280;9907;42.676;26.348;2023-02-12T00:31:15;99868.63;;;-0.27;54.35
19526;BME280;9907;42.676;26.348;2023-02-12T00:33:41;99854.97;;;-0.64;56.11
19526;BME280;9907;42.676;26.348;2023-02-12T00:36:07;99857.81;;;-0.72;55.80
19526;BME280;9907;42.676;26.348;2023-02-12T00:38:33;99858.72;;;-0.73;55.98
19526;BME280;9907;42.676;26.348;2023-02-12T00:40:59;99856.75;;;-0.66;55.61
19526;BME280;9907;42.676;26.348;2023-02-12T00:43:25;99862.13;;;-0.69;56.12
19526;BME280;9907;42.676;26.348;2023-02-12T00:45:50;99864.22;;;-0.80;56.79
19526;BME280;9907;42.676;26.348;2023-02-12T00:48:16;99867.66;;;-0.78;56.26
19526;BME280;9907;42.676;26.348;2023-02-12T00:50:46;99864.94;;;-0.75;56.02
19526;BME280;9907;42.676;26.348;2023-02-12T00:53:12;99864.31;;;-0.83;56.78
19526;BME280;9907;42.676;26.348;2023-02-12T00:55:38;99871.09;;;-0.76;56.30
19526;BME280;9907;42.676;26.348;2023-02-12T00:58:03;99866.03;;;-0.82;57.08
19526;BME280;9907;42.676;26.348;2023-02-12T01:00:29;99871.38;;;-0.85;56.96
19526;BME280;9907;42.676;26.348;2023-02-12T01:02:57;99868.28;;;-1.00;56.67
19526;BME280;9907;42.676;26.348;2023-02-12T01:05:23;99861.47;;;-1.05;57.42
19526;BME280;9907;42.676;26.348;2023-02-12T01:07:49;99863.53;;;-1.15;57.47
19526;BME280;9907;42.676;26.348;2023-02-12T01:10:15;99871.09;;;-1.06;57.61
19526;BME280;9907;42.676;26.348;2023-02-12T01:12:41;99860.59;;;-1.06;57.61
19526;BME280;9907;42.676;26.348;2023-02-12T01:15:06;99860.06;;;-1.17;57.84
19526;BME280;9907;42.676;26.348;2023-02-12T01:17:34;99861.16;;;-1.24;57.75
19526;BME280;9907;42.676;26.348;2023-02-12T01:20:00;99859.88;;;-1.11;58.03
19526;BME280;9907;42.676;26.348;2023-02-12T01:22:25;99854.56;;;-1.08;57.54
19526;BME280;9907;42.676;26.348;2023-02-12T01:24:51;99855.00;;;-1.23;58.28
19526;BME280;9907;42.676;26.348;2023-02-12T01:27:17;99854.34;;;-1.29;58.62
19526;BME280;9907;42.676;26.348;2023-02-12T01:29:42;99848.53;;;-1.40;58.81
19526;BME280;9907;42.676;26.348;2023-02-12T01:32:11;99845.88;;;-1.39;58.61
19526;BME280;9907;42.676;26.348;2023-02-12T01:34:36;99842.28;;;-1.36;58.53
19526;BME280;9907;42.676;26.348;2023-02-12T01:37:02;99836.78;;;-1.27;58.11
19526;BME280;9907;42.676;26.348;2023-02-12T01:39:28;99836.97;;;-1.33;58.88
19526;BME280;9907;42.676;26.348;2023-02-12T01:41:54;99838.19;;;-1.45;59.98
19526;BME280;9907;42.676;26.348;2023-02-12T01:44:21;99830.03;;;-1.36;59.18
19526;BME280;9907;42.676;26.348;2023-02-12T01:46:49;99835.19;;;-1.33;59.14
19526;BME280;9907;42.676;26.348;2023-02-12T01:49:32;99823.81;;;-1.32;59.28
19526;BME280;9907;42.676;26.348;2023-02-12T01:54:33;99818.66;;;-1.35;59.39
19526;BME280;9907;42.676;26.348;2023-02-12T01:57:01;99813.41;;;-1.35;60.31
19526;BME280;9907;42.676;26.348;2023-02-12T01:59:27;99827.50;;;-1.39;59.58
19526;BME280;9907;42.676;26.348;2023-02-12T02:01:53;99818.44;;;-1.27;59.15
19526;BME280;9907;42.676;26.348;2023-02-12T02:04:24;99815.81;;;-1.27;58.66
19526;BME280;9907;42.676;26.348;2023-02-12T02:07:00;99813.16;;;-1.26;58.21
19526;BME280;9907;42.676;26.348;2023-02-12T02:09:28;99822.28;;;-1.39;58.99
19526;BME280;9907;42.676;26.348;2023-02-12T02:11:54;99819.72;;;-1.40;59.10
19526;BME280;9907;42.676;26.348;2023-02-12T02:14:40;99815.69;;;-1.52;60.03
19526;BME280;9907;42.676;26.348;2023-02-12T02:17:32;99822.63;;;-1.51;59.76
19526;BME280;9907;42.676;26.348;2023-02-12T02:20:05;99814.84;;;-1.54;60.20
19526;BME280;9907;42.676;26.348;2023-02-12T02:22:53;99819.28;;;-1.56;59.73
19526;BME280;9907;42.676;26.348;2023-02-12T02:33:57;99819.63;;;-1.68;61.03
19526;BME280;9907;42.676;26.348;2023-02-12T02:36:44;99811.03;;;-1.73;60.84
19526;BME280;9907;42.676;26.348;2023-02-12T02:41:59;99818.34;;;-1.54;60.63
19526;BME280;9907;42.676;26.348;2023-02-12T02:44:34;99824.69;;;-1.62;60.47
19526;BME280;9907;42.676;26.348;2023-02-12T02:47:04;99812.84;;;-1.75;61.03
19526;BME280;9907;42.676;26.348;2023-02-12T02:49:39;99813.31;;;-1.61;61.06
19526;BME280;9907;42.676;26.348;2023-02-12T02:52:17;99819.94;;;-1.80;61.32
19526;BME280;9907;42.676;26.348;2023-02-12T02:54:48;99810.22;;;-1.75;61.70
19526;BME280;9907;42.676;26.348;2023-02-12T02:57:27;99812.75;;;-1.72;61.76
19526;BME280;9907;42.676;26.348;2023-02-12T03:00:06;99829.50;;;-1.78;61.91
19526;BME280;9907;42.676;26.348;2023-02-12T03:02:39;99832.81;;;-1.71;62.12
19526;BME280;9907;42.676;26.348;2023-02-12T03:05:30;99828.78;;;-1.84;62.88
19526;BME280;9907;42.676;26.348;2023-02-12T03:08:03;99830.44;;;-1.80;62.79
19526;BME280;9907;42.676;26.348;2023-02-12T03:10:44;99819.94;;;-1.79;62.80
19526;BME280;9907;42.676;26.348;2023-02-12T03:13:20;99835.66;;;-1.80;61.38
19526;BME280;9907;42.676;26.348;2023-02-12T03:16:10;99820.03;;;-1.83;60.92
19526;BME280;9907;42.676;26.348;2023-02-12T03:18:54;99809.81;;;-1.62;60.39
19526;BME280;9907;42.676;26.348;2023-02-12T03:21:29;99812.56;;;-1.66;60.43
19526;BME280;9907;42.676;26.348;2023-02-12T03:26:53;99816.75;;;-1.59;59.95
19526;BME280;9907;42.676;26.348;2023-02-12T03:29:19;99820.31;;;-1.62;59.69
19526;BME280;9907;42.676;26.348;2023-02-12T03:40:15;99810.00;;;-1.68;60.13
19526;BME280;9907;42.676;26.348;2023-02-12T03:45:53;99805.63;;;-1.67;60.96
19526;BME280;9907;42.676;26.348;2023-02-12T03:51:33;99813.19;;;-1.57;61.01
19526;BME280;9907;42.676;26.348;2023-02-12T03:53:59;99811.34;;;-1.53;60.56
19526;BME280;9907;42.676;26.348;2023-02-12T03:56:31;99812.41;;;-1.60;61.26
19526;BME280;9907;42.676;26.348;2023-02-12T03:58:58;99799.09;;;-1.53;61.23
19526;BME280;9907;42.676;26.348;2023-02-12T04:01:24;99813.06;;;-1.52;60.85
19526;BME280;9907;42.676;26.348;2023-02-12T04:03:50;99810.44;;;-1.52;61.22
19526;BME280;9907;42.676;26.348;2023-02-12T04:06:19;99810.56;;;-1.57;61.17
19526;BME280;9907;42.676;26.348;2023-02-12T04:08:46;99815.59;;;-1.49;61.49
19526;BME280;9907;42.676;26.348;2023-02-12T04:11:20;99821.06;;;-1.58;61.35
19526;BME280;9907;42.676;26.348;2023-02-12T04:16:32;99814.56;;;-1.74;60.81
19526;BME280;9907;42.676;26.348;2023-02-12T04:19:00;99813.44;;;-1.66;60.79
19526;BME280;9907;42.676;26.348;2023-02-12T04:22:01;99816.03;;;-1.64;61.01
19526;BME280;9907;42.676;26.348;2023-02-12T04:25:17;99829.91;;;-1.62;61.33
19526;BME280;9907;42.676;26.348;2023-02-12T04:27:36;99814.13;;;-1.59;61.40
19526;BME280;9907;42.676;26.348;2023-02-12T04:30:12;99811.53;;;-1.59;61.57
19526;BME280;9907;42.676;26.348;2023-02-12T04:32:50;99814.91;;;-1.56;62.03
19526;BME280;9907;42.676;26.348;2023-02-12T04:35:55;99814.91;;;-1.56;61.37
19526;BME280;9907;42.676;26.348;2023-02-12T04:38:47;99824.44;;;-1.53;62.21
19526;BME280;9907;42.676;26.348;2023-02-12T04:41:15;99829.69;;;-1.55;61.92
19526;BME280;9907;42.676;26.348;2023-02-12T04:43:40;99826.19;;;-1.54;61.64
19526;BME280;9907;42.676;26.348;2023-02-12T04:46:07;99833.09;;;-1.51;61.29
19526;BME280;9907;42.676;26.348;2023-02-12T04:48:33;99839.16;;;-1.49;61.33
19526;BME280;9907;42.676;26.348;2023-02-12T04:51:00;99829.38;;;-1.42;61.13
19526;BME280;9907;42.676;26.348;2023-02-12T04:53:25;99839.88;;;-1.44;61.11
19526;BME280;9907;42.676;26.348;2023-02-12T04:55:51;99838.75;;;-1.34;60.01
19526;BME280;9907;42.676;26.348;2023-02-12T04:58:17;99829.13;;;-1.33;60.09
19526;BME280;9907;42.676;26.348;2023-02-12T05:00:42;99838.97;;;-1.43;60.23
19526;BME280;9907;42.676;26.348;2023-02-12T05:03:08;99844.09;;;-1.38;60.59
19526;BME280;9907;42.676;26.348;2023-02-12T05:05:34;99846.50;;;-1.31;60.32
19526;BME280;9907;42.676;26.348;2023-02-12T05:07:59;99852.75;;;-1.35;61.21
19526;BME280;9907;42.676;26.348;2023-02-12T05:10:25;99850.22;;;-1.38;61.59
19526;BME280;9907;42.676;26.348;2023-02-12T05:12:54;99860.84;;;-1.44;61.42
19526;BME280;9907;42.676;26.348;2023-02-12T05:15:20;99857.44;;;-1.48;60.97
19526;BME280;9907;42.676;26.348;2023-02-12T05:17:46;99871.50;;;-1.50;61.83
19526;BME280;9907;42.676;26.348;2023-02-12T05:20:12;99875.19;;;-1.57;60.61
19526;BME280;9907;42.676;26.348;2023-02-12T05:22:38;99882.84;;;-1.50;60.46
19526;BME280;9907;42.676;26.348;2023-02-12T05:25:04;99874.88;;;-1.45;60.29
19526;BME280;9907;42.676;26.348;2023-02-12T05:27:30;99886.38;;;-1.51;60.67
19526;BME280;9907;42.676;26.348;2023-02-12T05:29:56;99890.75;;;-1.51;59.73
19526;BME280;9907;42.676;26.348;2023-02-12T05:32:22;99900.22;;;-1.45;59.84
19526;BME280;9907;42.676;26.348;2023-02-12T05:34:48;99901.75;;;-1.37;59.52
19526;BME280;9907;42.676;26.348;2023-02-12T05:37:13;99908.84;;;-1.42;59.77
19526;BME280;9907;42.676;26.348;2023-02-12T05:39:39;99904.34;;;-1.37;60.08
19526;BME280;9907;42.676;26.348;2023-02-12T05:42:04;99915.66;;;-1.35;59.39
19526;BME280;9907;42.676;26.348;2023-02-12T05:44:30;99907.03;;;-1.40;59.62
19526;BME280;9907;42.676;26.348;2023-02-12T05:46:55;99898.50;;;-1.47;59.79
19526;BME280;9907;42.676;26.348;2023-02-12T05:49:21;99896.00;;;-1.51;60.21
19526;BME280;9907;42.676;26.348;2023-02-12T05:51:47;99919.53;;;-1.48;60.45
19526;BME280;9907;42.676;26.348;2023-02-12T05:54:13;99918.03;;;-1.58;60.48
19526;BME280;9907;42.676;26.348;2023-02-12T05:56:44;99917.44;;;-1.69;61.22
19526;BME280;9907;42.676;26.348;2023-02-12T05:59:19;99916.34;;;-1.61;60.98
19526;BME280;9907;42.676;26.348;2023-02-12T06:01:46;99917.53;;;-1.40;60.89
19526;BME280;9907;42.676;26.348;2023-02-12T06:04:14;99919.81;;;-1.28;60.85
19526;BME280;9907;42.676;26.348;2023-02-12T06:06:41;99916.53;;;-1.36;61.67
19526;BME280;9907;42.676;26.348;2023-02-12T06:09:08;99925.75;;;-1.21;61.64
19526;BME280;9907;42.676;26.348;2023-02-12T06:11:34;99929.63;;;-1.04;61.44
19526;BME280;9907;42.676;26.348;2023-02-12T06:14:04;99927.34;;;-0.57;61.36
19526;BME280;9907;42.676;26.348;2023-02-12T06:16:31;99929.69;;;-0.20;60.55
19526;BME280;9907;42.676;26.348;2023-02-12T06:18:57;99908.03;;;-0.01;60.60
19526;BME280;9907;42.676;26.348;2023-02-12T06:21:24;99921.69;;;0.35;59.84
19526;BME280;9907;42.676;26.348;2023-02-12T06:23:51;99931.69;;;0.51;59.47
19526;BME280;9907;42.676;26.348;2023-02-12T06:26:17;99923.34;;;0.87;58.84
19526;BME280;9907;42.676;26.348;2023-02-12T06:28:43;99924.19;;;1.11;59.17
19526;BME280;9907;42.676;26.348;2023-02-12T06:31:24;99916.13;;;1.16;58.60
19526;BME280;9907;42.676;26.348;2023-02-12T06:33:51;99923.47;;;1.31;58.28
19526;BME280;9907;42.676;26.348;2023-02-12T06:36:17;99921.41;;;1.39;58.10
19526;BME280;9907;42.676;26.348;2023-02-12T06:38:42;99919.47;;;1.44;57.75
19526;BME280;9907;42.676;26.348;2023-02-12T06:41:08;99915.38;;;1.59;57.46
19526;BME280;9907;42.676;26.348;2023-02-12T06:43:34;99918.13;;;1.77;57.11
19526;BME280;9907;42.676;26.348;2023-02-12T06:46:00;99921.91;;;1.70;57.26
19526;BME280;9907;42.676;26.348;2023-02-12T06:48:26;99920.25;;;1.89;57.67
19526;BME280;9907;42.676;26.348;2023-02-12T06:50:52;99923.38;;;1.99;57.13
19526;BME280;9907;42.676;26.348;2023-02-12T06:53:17;99934.44;;;2.07;56.65
19526;BME280;9907;42.676;26.348;2023-02-12T06:55:43;99928.22;;;2.30;56.32
19526;BME280;9907;42.676;26.348;2023-02-12T06:58:08;99936.34;;;2.25;56.09
19526;BME280;9907;42.676;26.348;2023-02-12T07:00:34;99933.72;;;2.25;56.13
19526;BME280;9907;42.676;26.348;2023-02-12T07:02:59;99935.09;;;2.34;56.36
19526;BME280;9907;42.676;26.348;2023-02-12T07:05:25;99933.66;;;2.47;56.38
19526;BME280;9907;42.676;26.348;2023-02-12T07:07:50;99931.34;;;2.60;55.34
19526;BME280;9907;42.676;26.348;2023-02-12T07:10:17;99938.94;;;2.67;55.23
19526;BME280;9907;42.676;26.348;2023-02-12T07:12:42;99936.97;;;2.72;54.75
19526;BME280;9907;42.676;26.348;2023-02-12T07:15:08;99936.03;;;2.73;55.59
19526;BME280;9907;42.676;26.348;2023-02-12T07:17:34;99940.22;;;2.77;55.43
19526;BME280;9907;42.676;26.348;2023-02-12T07:19:59;99934.75;;;2.82;55.71
19526;BME280;9907;42.676;26.348;2023-02-12T07:22:25;99936.16;;;2.90;55.74
19526;BME280;9907;42.676;26.348;2023-02-12T07:24:50;99930.38;;;3.01;54.92
19526;BME280;9907;42.676;26.348;2023-02-12T07:27:16;99936.31;;;3.06;54.97
19526;BME280;9907;42.676;26.348;2023-02-12T07:29:41;99944.16;;;3.08;54.53
19526;BME280;9907;42.676;26.348;2023-02-12T07:32:07;99942.03;;;3.16;53.91
19526;BME280;9907;42.676;26.348;2023-02-12T07:34:33;99946.69;;;3.29;53.70
19526;BME280;9907;42.676;26.348;2023-02-12T07:36:58;99935.00;;;3.54;55.58
19526;BME280;9907;42.676;26.348;2023-02-12T07:39:24;99945.63;;;3.71;54.53
19526;BME280;9907;42.676;26.348;2023-02-12T07:41:52;99939.25;;;3.93;53.99
19526;BME280;9907;42.676;26.348;2023-02-12T07:44:18;99950.00;;;2.75;55.50
19526;BME280;9907;42.676;26.348;2023-02-12T07:46:47;99938.41;;;2.79;56.51
19526;BME280;9907;42.676;26.348;2023-02-12T07:49:20;99945.56;;;2.96;56.63
19526;BME280;9907;42.676;26.348;2023-02-12T07:51:47;99937.59;;;2.98;56.23
19526;BME280;9907;42.676;26.348;2023-02-12T07:54:13;99949.09;;;2.56;56.52
19526;BME280;9907;42.676;26.348;2023-02-12T07:56:40;99942.69;;;2.62;57.23
19526;BME280;9907;42.676;26.348;2023-02-12T07:59:09;99936.09;;;2.72;57.62
19526;BME280;9907;42.676;26.348;2023-02-12T08:01:41;99930.59;;;2.97;56.20
19526;BME280;9907;42.676;26.348;2023-02-12T08:04:09;99936.91;;;3.13;55.97
19526;BME280;9907;42.676;26.348;2023-02-12T08:06:37;99942.22;;;3.31;55.33
19526;BME280;9907;42.676;26.348;2023-02-12T08:09:05;99945.31;;;3.02;55.84
19526;BME280;9907;42.676;26.348;2023-02-12T08:11:32;99950.25;;;2.89;55.17
19526;BME280;9907;42.676;26.348;2023-02-12T08:14:00;99947.66;;;2.69;55.97
19526;BME280;9907;42.676;26.348;2023-02-12T08:16:27;99944.25;;;2.86;55.57
19526;BME280;9907;42.676;26.348;2023-02-12T08:18:54;99947.03;;;3.22;55.56
19526;BME280;9907;42.676;26.348;2023-02-12T08:21:23;99941.06;;;3.56;54.34
19526;BME280;9907;42.676;26.348;2023-02-12T08:23:49;99952.84;;;3.49;54.72
19526;BME280;9907;42.676;26.348;2023-02-12T08:26:26;99963.41;;;2.91;55.51
19526;BME280;9907;42.676;26.348;2023-02-12T08:31:24;99966.63;;;2.77;56.30
19526;BME280;9907;42.676;26.348;2023-02-12T08:33:51;99970.50;;;2.89;55.91
19526;BME280;9907;42.676;26.348;2023-02-12T08:36:20;99977.47;;;2.91;55.76
19526;BME280;9907;42.676;26.348;2023-02-12T08:38:46;99975.25;;;3.01;55.23
19526;BME280;9907;42.676;26.348;2023-02-12T08:41:20;99967.28;;;3.03;55.98
19526;BME280;9907;42.676;26.348;2023-02-12T08:43:47;99964.13;;;2.94;55.49
19526;BME280;9907;42.676;26.348;2023-02-12T08:46:24;99956.75;;;3.21;54.76
19526;BME280;9907;42.676;26.348;2023-02-12T08:48:58;99959.31;;;3.23;54.16
19526;BME280;9907;42.676;26.348;2023-02-12T08:51:28;99961.78;;;3.46;53.90
19526;BME280;9907;42.676;26.348;2023-02-12T08:53:56;99965.34;;;3.45;53.93
19526;BME280;9907;42.676;26.348;2023-02-12T08:56:23;99962.63;;;3.65;53.36
19526;BME280;9907;42.676;26.348;2023-02-12T08:58:49;99964.75;;;3.95;53.44
19526;BME280;9907;42.676;26.348;2023-02-12T09:01:20;99957.44;;;4.00;52.81
19526;BME280;9907;42.676;26.348;2023-02-12T09:03:47;99954.16;;;4.13;52.85
19526;BME280;9907;42.676;26.348;2023-02-12T09:06:14;99949.19;;;4.41;52.72
19526;BME280;9907;42.676;26.348;2023-02-12T09:08:40;99957.50;;;4.51;51.94
19526;BME280;9907;42.676;26.348;2023-02-12T09:11:17;99951.75;;;4.60;51.71
19526;BME280;9907;42.676;26.348;2023-02-12T09:13:46;99962.59;;;4.73;52.38
19526;BME280;9907;42.676;26.348;2023-02-12T09:16:12;99969.50;;;4.58;51.81
19526;BME280;9907;42.676;26.348;2023-02-12T09:18:38;99963.44;;;4.56;52.42
19526;BME280;9907;42.676;26.348;2023-02-12T09:21:10;99964.84;;;4.63;52.12
19526;BME280;9907;42.676;26.348;2023-02-12T09:23:37;99966.06;;;4.73;51.99
19526;BME280;9907;42.676;26.348;2023-02-12T09:26:10;99961.56;;;4.75;51.74
19526;BME280;9907;42.676;26.348;2023-02-12T09:28:37;99968.28;;;4.65;51.80
19526;BME280;9907;42.676;26.348;2023-02-12T09:31:08;99970.13;;;4.63;50.69
19526;BME280;9907;42.676;26.348;2023-02-12T09:33:34;99973.56;;;4.82;51.54
19526;BME280;9907;42.676;26.348;2023-02-12T09:36:04;99976.50;;;4.94;50.76
19526;BME280;9907;42.676;26.348;2023-02-12T09:38:31;99977.44;;;5.10;51.32
19526;BME280;9907;42.676;26.348;2023-02-12T09:44:06;99981.25;;;5.04;50.43
19526;BME280;9907;42.676;26.348;2023-02-12T09:46:51;99976.00;;;5.20;50.53
19526;BME280;9907;42.676;26.348;2023-02-12T09:51:50;99975.38;;;5.32;nan
19526;BME280;9907;42.676;26.348;2023-02-12T09:54:20;99979.13;;;5.44;50.17
19526;BME280;9907;42.676;26.348;2023-02-12T09:56:57;99981.06;;;5.40;48.98
19526;BME280;9907;42.676;26.348;2023-02-12T09:59:44;99980.59;;;5.49;48.87
19526;BME280;9907;42.676;26.348;2023-02-12T10:02:17;99981.81;;;5.59;48.79
19526;BME280;9907;42.676;26.348;2023-02-12T10:04:44;99976.59;;;5.73;49.15
19526;BME280;9907;42.676;26.348;2023-02-12T10:10:11;99979.69;;;5.81;50.06
19526;BME280;9907;42.676;26.348;2023-02-12T10:12:55;99985.50;;;5.72;48.81
19526;BME280;9907;42.676;26.348;2023-02-12T10:15:32;99995.44;;;5.69;48.39
19526;BME280;9907;42.676;26.348;2023-02-12T10:18:23;99991.31;;;5.79;47.89
19526;BME280;9907;42.676;26.348;2023-02-12T10:26:23;100002.25;;;6.06;47.25
19526;BME280;9907;42.676;26.348;2023-02-12T10:28:51;100001.72;;;6.15;47.07
19526;BME280;9907;42.676;26.348;2023-02-12T10:31:25;100005.66;;;6.08;46.59
19526;BME280;9907;42.676;26.348;2023-02-12T10:33:54;100004.19;;;6.18;47.21
19526;BME280;9907;42.676;26.348;2023-02-12T10:39:19;100008.28;;;6.39;46.39
19526;BME280;9907;42.676;26.348;2023-02-12T10:44:23;100014.28;;;6.43;45.40
19526;BME280;9907;42.676;26.348;2023-02-12T10:46:49;100018.31;;;6.18;43.85
19526;BME280;9907;42.676;26.348;2023-02-12T10:49:16;100020.97;;;6.34;44.81
19526;BME280;9907;42.676;26.348;2023-02-12T10:54:47;100014.44;;;6.40;44.13
19526;BME280;9907;42.676;26.348;2023-02-12T10:57:29;100023.19;;;6.26;44.54
19526;BME280;9907;42.676;26.348;2023-02-12T11:00:13;100026.53;;;6.29;44.38
19526;BME280;9907;42.676;26.348;2023-02-12T11:02:39;100035.09;;;6.34;44.13
19526;BME280;9907;42.676;26.348;2023-02-12T11:05:24;100033.63;;;6.45;44.29
19526;BME280;9907;42.676;26.348;2023-02-12T11:07:50;100037.31;;;6.42;44.46
19526;BME280;9907;42.676;26.348;2023-02-12T11:10:20;100047.50;;;6.50;44.23
19526;BME280;9907;42.676;26.348;2023-02-12T11:12:52;100046.97;;;6.43;44.10
19526;BME280;9907;42.676;26.348;2023-02-12T11:15:21;100041.50;;;6.46;44.25
19526;BME280;9907;42.676;26.348;2023-02-12T11:21:09;100046.63;;;6.65;43.80
19526;BME280;9907;42.676;26.348;2023-02-12T11:23:41;100040.06;;;6.70;43.95
19526;BME280;9907;42.676;26.348;2023-02-12T11:28:58;100037.78;;;6.64;43.73
19526;BME280;9907;42.676;26.348;2023-02-12T11:31:29;100039.91;;;6.73;44.03
19526;BME280;9907;42.676;26.348;2023-02-12T11:36:35;100033.66;;;6.74;44.64
19526;BME280;9907;42.676;26.348;2023-02-12T11:39:02;100024.53;;;6.94;44.63
19526;BME280;9907;42.676;26.348;2023-02-12T11:41:34;100020.63;;;7.00;44.84
19526;BME280;9907;42.676;26.348;2023-02-12T11:47:01;100038.56;;;6.96;44.68
19526;BME280;9907;42.676;26.348;2023-02-12T11:49:35;100040.16;;;6.99;44.40
19526;BME280;9907;42.676;26.348;2023-02-12T11:52:03;100040.31;;;7.11;44.44
19526;BME280;9907;42.676;26.348;2023-02-12T11:54:35;100042.94;;;6.97;44.81
19526;BME280;9907;42.676;26.348;2023-02-12T11:57:03;100043.59;;;7.01;44.93
19526;BME280;9907;42.676;26.348;2023-02-12T12:01:55;100043.41;;;7.04;45.08
19526;BME280;9907;42.676;26.348;2023-02-12T12:04:26;100030.38;;;7.29;44.91
19526;BME280;9907;42.676;26.348;2023-02-12T12:07:04;100038.81;;;7.35;45.77
19526;BME280;9907;42.676;26.348;2023-02-12T12:09:47;100043.13;;;7.38;46.07
19526;BME280;9907;42.676;26.348;2023-02-12T12:12:21;100032.75;;;7.48;45.57
19526;BME280;9907;42.676;26.348;2023-02-12T12:14:52;100030.75;;;7.51;46.51
19526;BME280;9907;42.676;26.348;2023-02-12T12:17:55;100027.25;;;7.51;46.51
19526;BME280;9907;42.676;26.348;2023-02-12T12:20:51;100033.44;;;7.51;45.78
19526;BME280;9907;42.676;26.348;2023-02-12T12:23:51;100041.88;;;7.44;45.19
19526;BME280;9907;42.676;26.348;2023-02-12T12:26:24;100040.03;;;7.16;45.80
19526;BME280;9907;42.676;26.348;2023-02-12T12:29:12;100050.03;;;7.26;45.64
19526;BME280;9907;42.676;26.348;2023-02-12T12:31:46;100057.88;;;7.28;45.65
19526;BME280;9907;42.676;26.348;2023-02-12T12:34:22;100055.06;;;7.31;45.26
19526;BME280;9907;42.676;26.348;2023-02-12T12:42:27;100079.84;;;7.02;46.30
19526;BME280;9907;42.676;26.348;2023-02-12T12:45:03;100077.88;;;7.05;46.76
19526;BME280;9907;42.676;26.348;2023-02-12T12:48:15;100079.91;;;7.16;47.16
19526;BME280;9907;42.676;26.348;2023-02-12T12:58:55;100088.59;;;7.04;47.62
19526;BME280;9907;42.676;26.348;2023-02-12T13:01:57;100094.53;;;6.93;47.66
19526;BME280;9907;42.676;26.348;2023-02-12T13:15:40;100110.38;;;6.95;48.40
19526;BME280;9907;42.676;26.348;2023-02-12T13:21:43;100118.25;;;6.80;48.58
19526;BME280;9907;42.676;26.348;2023-02-12T13:29:18;100138.34;;;6.39;49.38
19526;BME280;9907;42.676;26.348;2023-02-12T13:31:52;100148.16;;;6.37;49.92
19526;BME280;9907;42.676;26.348;2023-02-12T13:34:19;100150.75;;;6.39;49.83
19526;BME280;9907;42.676;26.348;2023-02-12T13:36:48;100166.09;;;6.49;50.20
19526;BME280;9907;42.676;26.348;2023-02-12T13:39:34;100157.59;;;6.58;50.26
19526;BME280;9907;42.676;26.348;2023-02-12T13:44:41;100155.63;;;6.77;54.94
19526;BME280;9907;42.676;26.348;2023-02-12T13:47:25;100156.47;;;6.62;52.80
19526;BME280;9907;42.676;26.348;2023-02-12T13:50:28;100174.63;;;6.54;51.82
19526;BME280;9907;42.676;26.348;2023-02-12T13:55:53;100173.00;;;6.52;52.17
19526;BME280;9907;42.676;26.348;2023-02-12T14:01:33;100187.16;;;6.52;53.25
19526;BME280;9907;42.676;26.348;2023-02-12T14:06:51;100199.66;;;6.50;52.41
19526;BME280;9907;42.676;26.348;2023-02-12T14:09:20;100198.94;;;6.31;54.26
19526;BME280;9907;42.676;26.348;2023-02-12T14:11:50;100200.91;;;6.43;54.42
19526;BME280;9907;42.676;26.348;2023-02-12T14:14:46;100206.72;;;6.34;53.80
19526;BME280;9907;42.676;26.348;2023-02-12T14:37:59;100256.16;;;5.85;54.21
19526;BME280;9907;42.676;26.348;2023-02-12T14:43:26;100255.25;;;5.86;55.44
19526;BME280;9907;42.676;26.348;2023-02-12T14:45:53;100262.06;;;5.73;55.21
19526;BME280;9907;42.676;26.348;2023-02-12T14:48:39;100260.16;;;5.76;57.73
19526;BME280;9907;42.676;26.348;2023-02-12T14:51:22;100272.22;;;5.82;58.70
19526;BME280;9907;42.676;26.348;2023-02-12T14:53:53;100268.09;;;5.76;56.83
19526;BME280;9907;42.676;26.348;2023-02-12T14:56:21;100286.84;;;5.37;56.72
19526;BME280;9907;42.676;26.348;2023-02-12T14:58:49;100286.50;;;5.26;56.87
19526;BME280;9907;42.676;26.348;2023-02-12T15:01:17;100294.16;;;5.14;57.36
19526;BME280;9907;42.676;26.348;2023-02-12T15:03:53;100295.31;;;5.08;57.66
19526;BME280;9907;42.676;26.348;2023-02-12T15:06:34;100282.94;;;5.09;58.47
19526;BME280;9907;42.676;26.348;2023-02-12T15:09:09;100307.19;;;5.00;58.54
19526;BME280;9907;42.676;26.348;2023-02-12T15:12:02;100309.06;;;4.98;58.95
19526;BME280;9907;42.676;26.348;2023-02-12T15:14:31;100318.94;;;4.94;58.41
19526;BME280;9907;42.676;26.348;2023-02-12T15:17:36;100329.94;;;4.85;58.90
19526;BME280;9907;42.676;26.348;2023-02-12T15:20:07;100326.59;;;4.81;59.99
19526;BME280;9907;42.676;26.348;2023-02-12T15:22:41;100331.97;;;4.80;59.31
19526;BME280;9907;42.676;26.348;2023-02-12T15:27:53;100352.16;;;4.82;60.43
19526;BME280;9907;42.676;26.348;2023-02-12T15:30:23;100345.13;;;4.81;60.29
19526;BME280;9907;42.676;26.348;2023-02-12T15:32:50;100353.22;;;4.78;60.58
19526;BME280;9907;42.676;26.348;2023-02-12T15:35:26;100363.28;;;4.70;61.11
19526;BME280;9907;42.676;26.348;2023-02-12T15:37:54;100340.47;;;4.68;61.62
19526;BME280;9907;42.676;26.348;2023-02-12T15:40:20;100361.69;;;4.66;62.38
19526;BME280;9907;42.676;26.348;2023-02-12T15:45:30;100371.31;;;4.69;62.81
19526;BME280;9907;42.676;26.348;2023-02-12T15:48:03;100383.00;;;4.63;62.15
19526;BME280;9907;42.676;26.348;2023-02-12T15:50:32;100374.78;;;4.69;62.61